createdAt,value
2023-02-13T00:04:48.053Z,99568.75
2023-02-13T00:09:50.296Z,99552.84
2023-02-13T00:14:52.614Z,99546.34
2023-02-13T00:19:54.851Z,99529.22
2023-02-13T00:24:57.090Z,99497.63
2023-02-13T00:29:59.357Z,99490.72
2023-02-13T00:35:01.581Z,99514.25
2023-02-13T00:40:05.885Z,99460.03
2023-02-13T00:45:08.650Z,99501.22
2023-02-13T00:50:11.366Z,99481.91
2023-02-13T00:55:32.982Z,99446.38
2023-02-13T01:00:35.184Z,99482.22
2023-02-13T01:05:37.387Z,99487.53
2023-02-13T01:10:40.836Z,99468.75
2023-02-13T01:15:43.677Z,99473.72
2023-02-13T01:20:46.800Z,99431.34
2023-02-13T01:25:51.868Z,99425.16
2023-02-13T01:30:58.732Z,99452.06
2023-02-13T01:36:06.468Z,99441.38
2023-02-13T01:41:09.040Z,99438.81
2023-02-13T01:46:14.514Z,99327.59
2023-02-13T01:51:22.495Z,99387.16
2023-02-13T01:56:31.935Z,99364.63
2023-02-13T02:01:34.489Z,99323.81
2023-02-13T02:06:49.836Z,99354.44
2023-02-13T02:12:07.562Z,99348.59
2023-02-13T02:17:12.989Z,99321.66
2023-02-13T02:22:36.036Z,99370.03
2023-02-13T02:28:01.375Z,99370.91
2023-02-13T02:33:42.704Z,99356.09
2023-02-13T02:39:03.420Z,99283.19
2023-02-13T02:44:42.450Z,99287.16
2023-02-13T02:49:59.709Z,99313.72
2023-02-13T02:55:11.080Z,99298.78
2023-02-13T03:00:47.297Z,99302.63
2023-02-13T03:06:10.464Z,99302.03
2023-02-13T03:11:31.312Z,99283.69
2023-02-13T03:16:51.923Z,99233.28
2023-02-13T03:22:18.462Z,99275.41
2023-02-13T03:27:58.167Z,99251.13
2023-02-13T03:33:38.869Z,99230.44
2023-02-13T03:38:48.771Z,99228.88
2023-02-13T03:43:55.185Z,99224.09
2023-02-13T03:49:16.845Z,99176.31
2023-02-13T03:54:42.482Z,99237.25
2023-02-13T03:59:44.806Z,99164.22
2023-02-13T04:04:51.809Z,99202.47
2023-02-13T04:09:54.048Z,99141.13
2023-02-13T04:15:08.077Z,99138.41
2023-02-13T04:20:10.644Z,99137.22
2023-02-13T04:25:15.453Z,99139.88
2023-02-13T04:30:17.805Z,99142.56
2023-02-13T04:35:20.121Z,99144.69
2023-02-13T04:40:22.367Z,99161.91
2023-02-13T04:45:24.536Z,99037.78
2023-02-13T04:50:26.875Z,99098.81
2023-02-13T04:55:29.413Z,99042.72
2023-02-13T05:00:31.650Z,99123.78
2023-02-13T05:05:34.426Z,99081.97
2023-02-13T05:10:37.112Z,99096.56
2023-02-13T05:15:39.724Z,99099.47
2023-02-13T05:20:42.337Z,99102.59
2023-02-13T05:25:44.588Z,99096.59
2023-02-13T05:30:46.852Z,99104.00
2023-02-13T05:35:49.059Z,99030.38
2023-02-13T05:40:51.354Z,99081.72
2023-02-13T05:46:04.860Z,99049.38
2023-02-13T05:51:07.297Z,99103.16
2023-02-13T05:56:09.480Z,99085.25
2023-02-13T06:01:11.887Z,99049.13
2023-02-13T06:06:14.379Z,99098.88
2023-02-13T06:11:16.612Z,99038.50
2023-02-13T06:16:18.884Z,99088.91
2023-02-13T06:21:22.521Z,99053.53
2023-02-13T06:26:25.119Z,99042.31
2023-02-13T06:31:27.363Z,99032.00
2023-02-13T06:36:29.750Z,99007.09
2023-02-13T06:41:31.889Z,99052.88
2023-02-13T06:46:34.405Z,99061.22
2023-02-13T06:51:36.796Z,99025.81
2023-02-13T06:56:38.933Z,99027.81
2023-02-13T07:01:41.020Z,98945.38
2023-02-13T07:06:43.157Z,99019.34
2023-02-13T07:11:45.262Z,99030.41
2023-02-13T07:16:47.379Z,98982.06
2023-02-13T07:21:49.533Z,99023.72
2023-02-13T07:26:51.660Z,98988.75
2023-02-13T07:31:53.768Z,98987.28
2023-02-13T07:36:56.014Z,98987.78
2023-02-13T07:41:58.123Z,98996.06
2023-02-13T07:47:01.706Z,98974.88
2023-02-13T07:52:05.158Z,98951.84
2023-02-13T07:57:07.357Z,98967.78
2023-02-13T08:02:15.044Z,98978.84
2023-02-13T08:07:17.903Z,98949.56
2023-02-13T08:12:20.261Z,98926.50
2023-02-13T08:17:22.480Z,98955.59
2023-02-13T08:22:25.088Z,98917.25
2023-02-13T08:27:28.282Z,98960.81
2023-02-13T08:32:31.519Z,98901.53
2023-02-13T08:37:35.980Z,98848.75
2023-02-13T08:42:39.380Z,98910.84
2023-02-13T08:47:41.738Z,98826.94
2023-02-13T08:52:43.941Z,98889.44
2023-02-13T08:57:46.037Z,98883.53
2023-02-13T09:02:48.290Z,98884.03
2023-02-13T09:07:50.455Z,98882.38
2023-02-13T09:12:53.692Z,98914.63
2023-02-13T09:17:55.856Z,98875.03
2023-02-13T09:22:58.725Z,98830.34
2023-02-13T09:28:01.010Z,98837.13
2023-02-13T09:33:03.218Z,98803.94
2023-02-13T09:38:08.395Z,98842.31
2023-02-13T09:43:17.300Z,98842.78
2023-02-13T09:48:34.644Z,98805.59
2023-02-13T09:53:38.571Z,98836.59
2023-02-13T09:58:47.116Z,98832.88
2023-02-13T10:04:01.510Z,98842.69
2023-02-13T10:09:15.114Z,98796.84
2023-02-13T10:14:24.271Z,98835.66
2023-02-13T10:19:37.796Z,98819.94
2023-02-13T10:24:58.142Z,98797.34
2023-02-13T10:30:17.717Z,98817.75
2023-02-13T10:35:24.833Z,98805.16
2023-02-13T10:40:40.830Z,98752.63
2023-02-13T10:46:33.839Z,98779.44
2023-02-13T10:51:40.309Z,98771.03
2023-02-13T10:56:57.713Z,98758.38
2023-02-13T11:02:14.063Z,98757.84
2023-02-13T11:07:24.174Z,98744.00
2023-02-13T11:12:30.703Z,98756.53
2023-02-13T11:17:40.474Z,98674.94
2023-02-13T11:22:50.549Z,98715.09
2023-02-13T11:28:11.364Z,98699.31
2023-02-13T11:33:29.181Z,98708.50
2023-02-13T11:38:31.317Z,98645.31
2023-02-13T11:43:55.127Z,98691.91
2023-02-13T11:48:59.917Z,98681.03
2023-02-13T11:54:03.373Z,98677.81
2023-02-13T11:59:17.054Z,98614.34
2023-02-13T12:04:28.076Z,98646.34
2023-02-13T12:09:31.167Z,98663.16
2023-02-13T12:14:44.925Z,98666.84
2023-02-13T12:19:54.039Z,98665.19
2023-02-13T12:25:24.192Z,98650.03
2023-02-13T12:30:47.769Z,98655.94
2023-02-13T12:36:02.105Z,98640.56
2023-02-13T12:41:25.073Z,98594.03
2023-02-13T12:46:39.793Z,98589.16
2023-02-13T12:51:57.400Z,98597.25
2023-02-13T12:57:08.617Z,98603.25
2023-02-13T13:02:33.938Z,98601.69
2023-02-13T13:08:15.214Z,98599.88
2023-02-13T13:13:35.069Z,98603.22
2023-02-13T13:18:47.144Z,98588.72
2023-02-13T13:24:00.615Z,98592.09
2023-02-13T13:29:07.394Z,98573.75
2023-02-13T13:34:26.452Z,98581.00
2023-02-13T13:39:57.433Z,98571.56
2023-02-13T13:45:30.113Z,98528.91
2023-02-13T13:50:37.951Z,98569.72
2023-02-13T13:56:10.693Z,98560.38
2023-02-13T14:01:26.855Z,98541.91
2023-02-13T14:06:51.677Z,98550.13
2023-02-13T14:12:12.129Z,98499.72
2023-02-13T14:17:38.550Z,98501.59
2023-02-13T14:22:41.653Z,98512.88
2023-02-13T14:27:54.191Z,98512.03
2023-02-13T14:32:58.025Z,98528.50
2023-02-13T14:38:03.092Z,98526.78
2023-02-13T14:43:26.350Z,98515.69
2023-02-13T14:48:56.785Z,98436.50
2023-02-13T14:54:17.441Z,98489.28
2023-02-13T14:59:25.960Z,98483.97
2023-02-13T15:04:49.744Z,98446.91
2023-02-13T15:10:00.444Z,98454.91
2023-02-13T15:15:06.280Z,98449.72
2023-02-13T15:20:21.224Z,98460.97
2023-02-13T15:25:29.389Z,98448.94
2023-02-13T15:30:39.064Z,98434.47
2023-02-13T15:35:41.755Z,98387.69
2023-02-13T15:40:44.668Z,98384.38
2023-02-13T15:45:49.870Z,98408.69
2023-02-13T15:50:56.377Z,98395.00
2023-02-13T15:56:04.842Z,98408.97
2023-02-13T16:01:09.401Z,98376.72
2023-02-13T16:06:17.137Z,98372.59
2023-02-13T16:11:36.704Z,98383.47
2023-02-13T16:17:02.624Z,98357.03
2023-02-13T16:22:34.038Z,98351.06
2023-02-13T16:27:37.112Z,98309.41
2023-02-13T16:32:41.498Z,98315.75
2023-02-13T16:38:30.132Z,98320.38
2023-02-13T16:43:39.969Z,98312.59
2023-02-13T16:48:44.567Z,98293.00
2023-02-13T16:53:46.718Z,98298.00
2023-02-13T16:58:51.625Z,98288.72
2023-02-13T17:03:54.438Z,98296.47
2023-02-13T17:09:01.332Z,98258.50
2023-02-13T17:14:03.626Z,98278.59
2023-02-13T17:19:05.801Z,98250.03
2023-02-13T17:24:11.321Z,98220.69
2023-02-13T17:29:13.606Z,98205.44
2023-02-13T17:34:15.774Z,98221.94
2023-02-13T17:39:20.219Z,98224.84
2023-02-13T17:44:22.431Z,98200.63
2023-02-13T17:49:27.003Z,98204.31
2023-02-13T17:54:33.381Z,98194.78
2023-02-13T17:59:35.572Z,98158.44
2023-02-13T18:04:39.067Z,98172.41
2023-02-13T18:09:41.736Z,98186.50
2023-02-13T18:14:44.316Z,98162.31
2023-02-13T18:19:50.032Z,98152.72
2023-02-13T18:24:52.207Z,98159.00
2023-02-13T18:29:58.013Z,98122.75
2023-02-13T18:35:00.368Z,98121.22
2023-02-13T18:40:02.606Z,98117.91
2023-02-13T18:45:06.199Z,98127.53
2023-02-13T18:50:09.803Z,98115.44
2023-02-13T18:55:15.340Z,98065.34
2023-02-13T19:00:17.994Z,98107.97
2023-02-13T19:05:21.493Z,98101.97
2023-02-13T19:10:23.894Z,98056.09
2023-02-13T19:15:28.419Z,98044.06
2023-02-13T19:20:30.686Z,98086.63
2023-02-13T19:25:35.666Z,98086.69
2023-02-13T19:30:39.722Z,98079.72
2023-02-13T19:35:45.759Z,98089.31
2023-02-13T19:41:03.127Z,98097.06
2023-02-13T19:46:13.311Z,98056.44
2023-02-13T19:51:21.134Z,98092.81
2023-02-13T19:56:23.422Z,98082.53
2023-02-13T20:01:27.479Z,98088.59
2023-02-13T20:06:36.152Z,98086.94
2023-02-13T20:11:40.249Z,98060.94
2023-02-13T20:16:46.427Z,98086.06
2023-02-13T20:21:51.001Z,98059.16
2023-02-13T20:26:55.609Z,98070.53
2023-02-13T20:31:57.873Z,98081.81
2023-02-13T20:37:00.139Z,98056.69
2023-02-13T20:42:02.505Z,98083.53
2023-02-13T20:47:04.793Z,98094.69
2023-02-13T20:52:06.982Z,98047.88
2023-02-13T20:57:09.226Z,98062.53
2023-02-13T21:02:12.648Z,98098.97
2023-02-13T21:07:14.946Z,98093.75
2023-02-13T21:12:17.452Z,98079.06
2023-02-13T21:17:19.731Z,98097.31
2023-02-13T21:22:22.083Z,98061.72
2023-02-13T21:27:24.424Z,97978.69
2023-02-13T21:32:26.765Z,98071.22
2023-02-13T21:37:30.014Z,98093.94
2023-02-13T21:42:32.296Z,98097.34
2023-02-13T21:47:34.739Z,98073.91
2023-02-13T21:52:36.977Z,98060.94
2023-02-13T21:57:40.086Z,98110.19
2023-02-13T22:02:42.480Z,98085.81
2023-02-13T22:08:03.077Z,98119.63
2023-02-13T22:13:05.617Z,98086.78
2023-02-13T22:18:07.880Z,98070.13
2023-02-13T22:23:10.098Z,98095.28
2023-02-13T22:28:13.306Z,98130.72
2023-02-13T22:33:15.478Z,98130.72
2023-02-13T22:38:17.732Z,98100.47
2023-02-13T22:43:19.862Z,98112.53
2023-02-13T22:48:22.133Z,98113.31
2023-02-13T22:53:24.344Z,98114.13
2023-02-13T22:58:26.945Z,98138.34
2023-02-13T23:03:33.088Z,98121.81
2023-02-13T23:08:35.535Z,98101.81
2023-02-13T23:13:37.640Z,98148.66
2023-02-13T23:18:40.203Z,98115.63
2023-02-13T23:23:42.369Z,98136.34
2023-02-13T23:28:44.520Z,98154.66
2023-02-13T23:33:46.636Z,98152.75
2023-02-13T23:38:48.749Z,98163.16
2023-02-13T23:43:50.913Z,98153.78
2023-02-13T23:48:53.040Z,98125.13
2023-02-13T23:53:57.521Z,98131.19
2023-02-13T23:58:59.742Z,98125.00
